Time;durP1;ratioP1;P1;durP2;ratioP2;P2;SDS_P1;SDS_P2;PMS_P1;PMS_P2;Temp;Humidity;BMP_temperature;BMP_pressure;BME280_temperature;BME280_humidity;BME280_pressure;Samples;Min_cycle;Max_cycle;Signal;HPM_P1;HPM_P2
2021/07/10 00:00:49;;;;;;;20.97;14.27;;;17.60;99.90;;;;;;5058494;28;20559;-82
2021/07/10 00:03:16;;;;;;;24.67;15.63;;;17.60;99.90;;;;;;5058289;28;21021;-82
2021/07/10 00:05:44;;;;;;;20.70;14.50;;;17.60;99.90;;;;;;5057927;28;20534;-82
2021/07/10 00:08:11;;;;;;;21.70;14.87;;;17.50;99.90;;;;;;5057780;28;20458;-82
2021/07/10 00:10:38;;;;;;;25.20;14.60;;;17.50;99.90;;;;;;5057067;28;20451;-81
2021/07/10 00:13:05;;;;;;;24.33;15.30;;;17.50;99.90;;;;;;5057048;28;21116;-82
2021/07/10 00:15:32;;;;;;;22.40;13.70;;;17.50;99.90;;;;;;5057566;28;20444;-81
2021/07/10 00:17:58;;;;;;;22.60;14.40;;;17.50;99.90;;;;;;5058695;28;20455;-82
2021/07/10 00:20:25;;;;;;;22.80;13.83;;;17.40;99.90;;;;;;5058095;28;20999;-82
2021/07/10 00:22:53;;;;;;;23.73;13.97;;;17.40;99.90;;;;;;5057940;28;20496;-81
2021/07/10 00:25:21;;;;;;;21.07;13.10;;;17.40;99.90;;;;;;5056784;28;20992;-81
2021/07/10 00:27:49;;;;;;;19.87;12.77;;;17.40;99.90;;;;;;5061623;28;20531;-82
2021/07/10 00:30:20;;;;;;;22.77;13.30;;;17.40;99.90;;;;;;5062449;28;20443;-82
2021/07/10 00:32:47;;;;;;;21.53;13.73;;;17.30;99.90;;;;;;5073357;28;20983;-81
2021/07/10 00:35:15;;;;;;;23.90;14.27;;;17.20;99.90;;;;;;5081434;28;20447;-81
2021/07/10 00:37:42;;;;;;;22.00;13.50;;;17.20;99.90;;;;;;5087784;28;20439;-81
2021/07/10 00:40:12;;;;;;;20.70;13.50;;;17.20;99.90;;;;;;5082198;28;20634;-80
2021/07/10 00:42:40;;;;;;;22.33;13.20;;;17.10;99.90;;;;;;5084961;28;20988;-82
2021/07/10 00:45:09;;;;;;;21.17;13.40;;;17.10;99.90;;;;;;5071553;28;20450;-82
2021/07/10 00:47:37;;;;;;;22.47;14.17;;;17.10;99.90;;;;;;5081041;28;20947;-82
2021/07/10 00:50:09;;;;;;;21.53;13.60;;;17.10;99.90;;;;;;5070286;28;20826;-82
2021/07/10 00:52:35;;;;;;;23.77;13.00;;;17.00;99.90;;;;;;5085554;28;20553;-82
2021/07/10 00:55:03;;;;;;;19.37;12.20;;;17.00;99.90;;;;;;5061844;28;20456;-82
2021/07/10 00:57:32;;;;;;;21.77;11.83;;;17.00;99.90;;;;;;5069996;28;20448;-82
2021/07/10 00:59:59;;;;;;;21.87;12.57;;;17.00;99.90;;;;;;5071538;28;20453;-82
2021/07/10 01:02:26;;;;;;;21.87;14.00;;;17.00;99.90;;;;;;5081730;28;20475;-82
2021/07/10 01:04:52;;;;;;;21.50;12.73;;;16.90;99.90;;;;;;5082535;28;20443;-82
2021/07/10 01:07:19;;;;;;;23.13;13.90;;;16.90;99.90;;;;;;5074412;28;20816;-81
2021/07/10 01:09:46;;;;;;;20.50;13.33;;;16.90;99.90;;;;;;5060802;28;20455;-82
2021/07/10 01:12:13;;;;;;;27.23;14.07;;;16.90;99.90;;;;;;5061326;28;20558;-82
2021/07/10 01:14:41;;;;;;;21.50;14.40;;;16.90;99.90;;;;;;5062230;28;20455;-81
2021/07/10 01:17:08;;;;;;;22.43;13.87;;;16.80;99.90;;;;;;5062167;28;20454;-82
2021/07/10 01:19:35;;;;;;;22.13;13.37;;;16.80;99.90;;;;;;5060858;28;20878;-81
2021/07/10 01:22:10;;;;;;;20.50;14.13;;;16.80;99.90;;;;;;5061907;28;20483;-81
2021/07/10 01:24:36;;;;;;;23.20;12.50;;;16.80;99.90;;;;;;5062025;28;20448;-81
2021/07/10 01:27:04;;;;;;;20.67;11.80;;;16.70;99.90;;;;;;5061442;28;20551;-82
2021/07/10 01:29:30;;;;;;;22.30;13.30;;;16.70;99.90;;;;;;5060646;28;20444;-81
2021/07/10 01:32:00;;;;;;;19.10;12.17;;;16.60;99.90;;;;;;5061956;28;20995;-82
2021/07/10 01:34:29;;;;;;;23.73;13.37;;;16.60;99.90;;;;;;5061603;28;20460;-81
2021/07/10 01:36:56;;;;;;;19.50;12.83;;;16.60;99.90;;;;;;5061240;28;20871;-82
2021/07/10 01:39:24;;;;;;;22.20;14.20;;;16.50;99.90;;;;;;5060229;28;20538;-81
2021/07/10 01:41:53;;;;;;;18.93;12.00;;;16.60;99.90;;;;;;5061480;28;20566;-81
2021/07/10 01:44:21;;;;;;;20.33;12.07;;;16.50;99.90;;;;;;5061543;28;20881;-82
2021/07/10 01:46:48;;;;;;;19.97;13.17;;;16.50;99.90;;;;;;5061689;28;20539;-82
2021/07/10 01:49:15;;;;;;;20.90;13.63;;;16.50;99.90;;;;;;5060095;28;20447;-82
2021/07/10 01:51:42;;;;;;;24.77;13.40;;;16.50;99.90;;;;;;5061957;28;20475;-83
2021/07/10 01:54:08;;;;;;;21.87;14.07;;;16.50;99.90;;;;;;5061436;28;21026;-83
2021/07/10 01:56:37;;;;;;;21.50;12.93;;;16.50;99.90;;;;;;5062419;28;20543;-83
2021/07/10 01:59:04;;;;;;;19.07;12.47;;;16.40;99.90;;;;;;5061534;28;20452;-82
2021/07/10 02:01:32;;;;;;;21.83;13.20;;;16.40;99.90;;;;;;5066053;28;20466;-82
2021/07/10 02:03:59;;;;;;;22.20;13.27;;;16.40;99.90;;;;;;5072156;28;20540;-82
2021/07/10 02:06:26;;;;;;;22.00;13.03;;;16.40;99.90;;;;;;5081451;28;20459;-81
2021/07/10 02:08:53;;;;;;;20.23;13.30;;;16.40;99.90;;;;;;5080254;28;20827;-81
2021/07/10 02:11:20;;;;;;;19.93;12.60;;;16.40;99.90;;;;;;5081099;28;20451;-83
2021/07/10 02:13:48;;;;;;;21.63;12.43;;;16.40;99.90;;;;;;5071726;28;20472;-81
2021/07/10 02:16:15;;;;;;;20.10;12.23;;;16.30;99.90;;;;;;5060753;28;20970;-83
2021/07/10 02:18:42;;;;;;;21.20;13.10;;;16.30;99.90;;;;;;5059893;28;20507;-81
2021/07/10 02:21:09;;;;;;;20.17;12.23;;;16.30;99.90;;;;;;5061193;28;20804;-82
2021/07/10 02:23:37;;;;;;;20.80;13.30;;;16.20;99.90;;;;;;5061251;28;20546;-82
2021/07/10 02:26:03;;;;;;;21.37;12.60;;;16.20;99.90;;;;;;5060901;28;20457;-81
2021/07/10 02:28:30;;;;;;;20.57;12.60;;;16.20;99.90;;;;;;5060037;28;20456;-82
2021/07/10 02:30:58;;;;;;;20.43;12.33;;;16.20;99.90;;;;;;5060521;28;21035;-82
2021/07/10 02:33:25;;;;;;;21.23;13.43;;;16.10;99.90;;;;;;5072045;28;20828;-82
2021/07/10 02:35:53;;;;;;;20.27;11.63;;;16.10;99.90;;;;;;5079971;28;20446;-82
2021/07/10 02:38:20;;;;;;;21.33;13.40;;;16.10;99.90;;;;;;5080264;28;20455;-81
2021/07/10 02:40:46;;;;;;;18.17;11.97;;;16.10;99.90;;;;;;5078189;28;20461;-81
2021/07/10 02:43:15;;;;;;;21.10;12.60;;;16.10;99.90;;;;;;5075627;28;20502;-81
2021/07/10 02:45:42;;;;;;;21.03;12.30;;;16.10;99.90;;;;;;5058328;28;20892;-82
2021/07/10 02:48:11;;;;;;;20.27;11.77;;;16.10;99.90;;;;;;5058864;28;20496;-82
2021/07/10 02:50:38;;;;;;;21.50;12.20;;;16.00;99.90;;;;;;5058836;28;20440;-82
2021/07/10 02:53:05;;;;;;;20.23;12.37;;;16.00;99.90;;;;;;5059201;28;20472;-82
2021/07/10 02:55:34;;;;;;;19.03;11.60;;;16.00;99.90;;;;;;5058914;28;20460;-83
2021/07/10 02:58:01;;;;;;;21.70;11.27;;;15.90;99.90;;;;;;5060190;28;20884;-83
2021/07/10 03:00:30;;;;;;;21.03;12.00;;;15.90;99.90;;;;;;5061129;28;20454;-83
2021/07/10 03:02:59;;;;;;;19.07;11.03;;;15.90;99.90;;;;;;5061130;28;20662;-83
2021/07/10 03:05:28;;;;;;;20.57;12.80;;;15.90;99.90;;;;;;5059820;28;20455;-83
2021/07/10 03:07:55;;;;;;;20.10;11.37;;;15.90;99.90;;;;;;5059945;28;20544;-83
2021/07/10 03:10:25;;;;;;;17.70;11.00;;;15.80;99.90;;;;;;5060937;28;20455;-82
2021/07/10 03:12:52;;;;;;;19.60;12.10;;;15.80;99.90;;;;;;5072980;28;20452;-80
2021/07/10 03:15:19;;;;;;;24.10;13.53;;;15.80;99.90;;;;;;5075390;28;20454;-81
2021/07/10 03:17:47;;;;;;;23.07;12.30;;;15.80;99.90;;;;;;5073120;28;20455;-82
2021/07/10 03:20:15;;;;;;;18.53;11.40;;;15.80;99.90;;;;;;5058527;28;20460;-83
2021/07/10 03:22:44;;;;;;;21.57;12.53;;;15.80;99.90;;;;;;5058249;28;20494;-82
2021/07/10 03:25:13;;;;;;;21.00;12.80;;;15.80;99.90;;;;;;5058923;28;20454;-82
2021/07/10 03:27:40;;;;;;;19.90;12.93;;;15.80;99.90;;;;;;5059313;28;20832;-83
2021/07/10 03:30:09;;;;;;;21.40;12.00;;;15.80;99.90;;;;;;5058198;28;20471;-83
2021/07/10 03:32:38;;;;;;;19.20;11.80;;;15.70;99.90;;;;;;5058648;28;20468;-82
2021/07/10 03:35:06;;;;;;;19.20;12.27;;;15.70;99.90;;;;;;5059272;28;21039;-83
2021/07/10 03:37:33;;;;;;;20.90;13.33;;;15.70;99.90;;;;;;5059670;28;20462;-83
2021/07/10 03:40:01;;;;;;;22.00;13.10;;;15.70;99.90;;;;;;5057584;28;20448;-83
2021/07/10 03:42:28;;;;;;;20.33;11.97;;;15.70;99.90;;;;;;5053648;28;20480;-83
2021/07/10 03:44:55;;;;;;;20.17;12.37;;;15.70;99.90;;;;;;5068751;28;20483;-82
2021/07/10 03:47:22;;;;;;;22.40;11.80;;;15.70;99.90;;;;;;5079910;28;20465;-83
2021/07/10 03:49:49;;;;;;;22.50;12.77;;;15.70;99.90;;;;;;5078887;28;20450;-82
2021/07/10 03:52:16;;;;;;;25.67;13.17;;;15.70;99.90;;;;;;5079107;28;20475;-83
2021/07/10 03:54:43;;;;;;;20.77;13.27;;;15.70;99.90;;;;;;5076731;28;20800;-82
2021/07/10 03:57:11;;;;;;;21.80;13.50;;;15.70;99.90;;;;;;5069165;28;20447;-83
2021/07/10 03:59:38;;;;;;;21.27;12.63;;;15.70;99.90;;;;;;5067509;28;20453;-81
2021/07/10 04:02:05;;;;;;;23.77;13.67;;;15.80;99.90;;;;;;5070198;28;20490;-82
2021/07/10 04:04:32;;;;;;;23.90;13.83;;;15.80;99.90;;;;;;5063704;28;20501;-83
2021/07/10 04:07:00;;;;;;;21.70;13.00;;;15.80;99.90;;;;;;5065193;28;20448;-83
2021/07/10 04:09:27;;;;;;;23.73;14.40;;;15.80;99.90;;;;;;5066592;28;20538;-82
2021/07/10 04:11:54;;;;;;;24.40;14.27;;;15.80;99.90;;;;;;5066996;28;20559;-82
2021/07/10 04:14:23;;;;;;;21.33;13.60;;;15.90;99.90;;;;;;5077811;28;20458;-82
2021/07/10 04:16:50;;;;;;;22.77;14.90;;;15.90;99.90;;;;;;5082285;28;20455;-83
2021/07/10 04:19:17;;;;;;;22.40;14.33;;;15.90;99.90;;;;;;5084963;28;20554;-82
2021/07/10 04:21:44;;;;;;;24.80;14.33;;;16.00;99.90;;;;;;5080033;28;20475;-82
2021/07/10 04:24:10;;;;;;;24.00;14.17;;;16.00;99.90;;;;;;5076627;28;20526;-82
2021/07/10 04:26:37;;;;;;;25.60;15.20;;;16.00;99.90;;;;;;5082925;28;20453;-83
2021/07/10 04:29:04;;;;;;;24.60;15.80;;;16.10;99.90;;;;;;5066259;28;20990;-81
2021/07/10 04:31:32;;;;;;;24.70;14.97;;;16.10;99.90;;;;;;5069919;28;20456;-80
2021/07/10 04:33:59;;;;;;;22.47;14.77;;;16.20;99.90;;;;;;5070348;28;20454;-81
2021/07/10 04:36:26;;;;;;;21.20;15.20;;;16.20;99.90;;;;;;5070616;28;20440;-81
2021/07/10 04:38:53;;;;;;;22.13;15.30;;;16.20;99.90;;;;;;5068767;28;20944;-81
2021/07/10 04:41:20;;;;;;;22.90;15.00;;;16.30;99.90;;;;;;5069903;28;20548;-81
2021/07/10 04:43:46;;;;;;;23.10;15.67;;;16.30;99.90;;;;;;5072230;28;20562;-81
2021/07/10 04:46:13;;;;;;;28.80;15.70;;;16.40;99.90;;;;;;5071710;28;20510;-81
2021/07/10 04:48:41;;;;;;;26.80;16.50;;;16.40;99.90;;;;;;5071031;28;20458;-80
2021/07/10 04:51:09;;;;;;;26.70;16.20;;;16.50;99.90;;;;;;5072005;28;20482;-80
2021/07/10 04:53:36;;;;;;;26.40;16.80;;;16.50;99.90;;;;;;5071716;28;20521;-81
2021/07/10 04:56:03;;;;;;;28.50;16.97;;;16.60;99.90;;;;;;5071762;28;20535;-80
2021/07/10 04:58:30;;;;;;;24.80;16.67;;;16.70;99.90;;;;;;5070749;28;20511;-80
2021/07/10 05:00:57;;;;;;;26.50;16.40;;;16.70;99.90;;;;;;5070563;28;20464;-81
2021/07/10 05:03:23;;;;;;;25.53;16.93;;;16.80;99.90;;;;;;5070810;28;20906;-80
2021/07/10 05:05:52;;;;;;;25.30;17.10;;;16.80;99.90;;;;;;5065139;28;20459;-85
2021/07/10 05:08:18;;;;;;;25.63;17.13;;;16.90;99.90;;;;;;5058595;28;20463;-83
2021/07/10 05:10:45;;;;;;;27.07;16.90;;;17.00;99.90;;;;;;5060016;28;20470;-83
2021/07/10 05:13:12;;;;;;;29.13;17.27;;;17.00;99.90;;;;;;5062329;28;20470;-84
2021/07/10 05:15:39;;;;;;;27.23;16.23;;;17.10;99.90;;;;;;5062765;28;20452;-84
2021/07/10 05:18:07;;;;;;;24.90;16.97;;;17.20;99.90;;;;;;5053365;28;20460;-84
2021/07/10 05:20:34;;;;;;;24.43;16.07;;;17.20;99.90;;;;;;5074058;28;20455;-84
2021/07/10 05:23:02;;;;;;;32.33;17.40;;;17.30;99.90;;;;;;5085136;28;20505;-84
2021/07/10 05:25:29;;;;;;;26.30;16.30;;;17.30;99.90;;;;;;5064405;28;20495;-84
2021/07/10 05:27:56;;;;;;;26.10;16.40;;;17.40;99.90;;;;;;5063226;28;20527;-84
2021/07/10 05:30:23;;;;;;;27.20;17.53;;;17.40;99.90;;;;;;5063667;28;20470;-84
2021/07/10 05:32:50;;;;;;;25.17;16.93;;;17.50;99.90;;;;;;5064983;28;20478;-84
2021/07/10 05:35:18;;;;;;;24.87;16.17;;;17.60;99.90;;;;;;5064035;28;20805;-84
2021/07/10 05:37:46;;;;;;;24.37;16.10;;;17.60;99.90;;;;;;5071665;28;20515;-83
2021/07/10 05:40:14;;;;;;;34.13;19.77;;;17.70;99.90;;;;;;5073083;28;20507;-84
2021/07/10 05:42:41;;;;;;;28.83;19.80;;;17.70;99.90;;;;;;5100728;22;20475;31
2021/07/10 05:45:09;;;;;;;28.63;17.60;;;17.80;99.90;;;;;;5095673;28;20494;-85
2021/07/10 05:47:36;;;;;;;27.50;16.03;;;17.90;99.90;;;;;;5102881;28;20536;-85
2021/07/10 05:50:04;;;;;;;26.60;16.73;;;17.90;99.90;;;;;;5099621;28;20465;-84
2021/07/10 05:52:31;;;;;;;27.07;17.40;;;18.10;99.90;;;;;;5099917;28;20536;-85
2021/07/10 05:54:58;;;;;;;25.70;16.17;;;18.20;99.90;;;;;;5081615;28;20983;-84
2021/07/10 05:57:26;;;;;;;24.67;15.80;;;18.30;99.90;;;;;;5080756;28;20537;-83
2021/07/10 05:59:53;;;;;;;26.00;16.80;;;18.40;99.90;;;;;;5078391;28;20462;-85
2021/07/10 06:02:20;;;;;;;27.90;16.77;;;18.40;99.90;;;;;;5073897;28;20448;-84
2021/07/10 06:04:47;;;;;;;26.50;15.80;;;18.60;99.90;;;;;;5077159;28;20570;-84
2021/07/10 06:07:13;;;;;;;31.30;15.57;;;18.80;99.90;;;;;;5078351;28;20465;-85
2021/07/10 06:09:41;;;;;;;26.10;14.40;;;18.90;99.90;;;;;;5078254;28;20463;-85
2021/07/10 06:12:10;;;;;;;27.53;13.40;;;19.10;99.90;;;;;;5064702;28;20503;-83
2021/07/10 06:14:38;;;;;;;23.60;13.70;;;19.20;99.90;;;;;;5073693;28;20538;-86
2021/07/10 06:17:06;;;;;;;25.43;12.87;;;19.40;99.90;;;;;;5066327;28;20455;-85
2021/07/10 06:19:33;;;;;;;24.47;12.37;;;19.50;99.90;;;;;;5078236;28;20541;-86
2021/07/10 06:21:59;;;;;;;24.47;12.87;;;19.60;99.90;;;;;;5079654;28;20526;-84
2021/07/10 06:24:26;;;;;;;25.67;12.50;;;19.70;99.90;;;;;;5078294;28;20525;-84
2021/07/10 06:26:53;;;;;;;24.03;12.00;;;19.80;99.90;;;;;;5078971;28;20435;-84
2021/07/10 06:29:20;;;;;;;22.57;10.50;;;19.80;99.90;;;;;;5076476;28;20447;-84
2021/07/10 06:31:49;;;;;;;22.97;11.43;;;19.80;99.90;;;;;;5069838;28;20463;-83
2021/07/10 06:34:15;;;;;;;23.00;11.27;;;19.90;99.90;;;;;;5072269;28;20479;-82
2021/07/10 06:36:42;;;;;;;23.17;10.93;;;19.80;99.90;;;;;;5073519;28;20828;-81
2021/07/10 06:39:09;;;;;;;22.90;8.57;;;20.00;99.90;;;;;;5075452;28;20442;-82
2021/07/10 06:41:37;;;;;;;29.10;9.70;;;20.00;99.90;;;;;;5074641;28;20534;-82
2021/07/10 06:44:05;;;;;;;20.47;9.40;;;20.10;99.90;;;;;;5075470;28;20545;-82
2021/07/10 06:46:32;;;;;;;18.93;9.80;;;20.20;99.90;;;;;;5068425;28;20466;-80
2021/07/10 06:49:00;;;;;;;18.93;8.70;;;20.20;99.90;;;;;;5070972;28;20538;-82
2021/07/10 06:51:27;;;;;;;25.37;8.87;;;20.40;99.90;;;;;;5069244;28;20463;-80
2021/07/10 06:53:54;;;;;;;20.03;9.40;;;20.30;99.90;;;;;;5070956;28;20475;-82
2021/07/10 06:56:20;;;;;;;19.00;9.70;;;20.40;99.90;;;;;;5072745;28;20485;-81
2021/07/10 06:58:48;;;;;;;21.80;9.40;;;20.40;99.90;;;;;;5066738;28;20459;-82
2021/07/10 07:01:14;;;;;;;26.50;10.70;;;20.40;99.90;;;;;;5074580;28;20447;-82
2021/07/10 07:03:41;;;;;;;21.67;9.50;;;20.50;99.90;;;;;;5075366;28;20477;-82
2021/07/10 07:06:09;;;;;;;26.73;8.97;;;20.50;99.90;;;;;;5076065;28;20473;-82
2021/07/10 07:08:36;;;;;;;28.80;10.37;;;20.60;99.90;;;;;;5073539;28;20458;-81
2021/07/10 07:11:03;;;;;;;22.47;9.70;;;20.60;99.90;;;;;;5073527;28;20455;-81
2021/07/10 07:13:30;;;;;;;24.90;8.80;;;20.70;99.90;;;;;;5069799;28;20475;-81
2021/07/10 07:15:57;;;;;;;22.47;8.13;;;20.70;99.90;;;;;;5075575;28;20950;-82
2021/07/10 07:18:23;;;;;;;24.70;8.63;;;20.70;99.90;;;;;;5075385;28;20826;-81
2021/07/10 07:20:50;;;;;;;23.90;9.40;;;20.80;99.90;;;;;;5075790;28;20542;-82
2021/07/10 07:23:19;;;;;;;20.60;9.27;;;20.90;99.90;;;;;;5072175;28;20986;-82
2021/07/10 07:25:45;;;;;;;23.77;8.90;;;21.10;99.90;;;;;;5075330;28;20479;-82
2021/07/10 07:28:12;;;;;;;30.00;9.00;;;21.00;99.90;;;;;;5067096;28;20799;-81
2021/07/10 07:30:39;;;;;;;21.03;7.90;;;21.00;99.90;;;;;;5067561;28;20982;-83
2021/07/10 07:33:06;;;;;;;18.27;7.90;;;20.90;99.90;;;;;;5076178;28;20489;-82
2021/07/10 07:35:33;;;;;;;24.20;9.30;;;20.90;99.90;;;;;;5075879;28;20478;-81
2021/07/10 07:38:01;;;;;;;25.77;8.27;;;20.80;99.90;;;;;;5069338;28;20451;-81
2021/07/10 07:40:30;;;;;;;22.40;7.80;;;20.90;99.90;;;;;;5067913;28;20451;-81
2021/07/10 07:42:57;;;;;;;23.00;8.27;;;21.10;99.90;;;;;;5022380;28;1074826;-82
2021/07/10 07:45:24;;;;;;;24.93;8.30;;;21.10;99.90;;;;;;5056005;28;20494;-82
2021/07/10 07:47:51;;;;;;;27.57;8.67;;;21.10;99.90;;;;;;5059028;28;20504;-81
2021/07/10 07:50:20;;;;;;;26.80;9.07;;;21.20;99.90;;;;;;5055938;28;20435;-81
2021/07/10 07:52:47;;;;;;;26.37;9.40;;;21.30;99.90;;;;;;5056312;28;20459;-80
2021/07/10 07:55:15;;;;;;;29.43;8.03;;;21.50;99.90;;;;;;5069294;28;20447;-81
2021/07/10 07:57:44;;;;;;;24.13;8.23;;;21.50;99.90;;;;;;5075315;28;20451;-81
2021/07/10 08:00:13;;;;;;;26.70;7.63;;;21.70;99.90;;;;;;5075264;28;20458;-81
2021/07/10 08:02:41;;;;;;;26.40;8.63;;;21.80;99.90;;;;;;5074883;28;20459;-81
2021/07/10 08:05:09;;;;;;;26.30;8.20;;;21.90;99.90;;;;;;5075672;28;20483;-81
2021/07/10 08:07:36;;;;;;;37.17;9.30;;;22.00;99.90;;;;;;5075846;28;20439;-82
2021/07/10 08:10:05;;;;;;;32.13;8.00;;;21.90;99.90;;;;;;5075867;28;20570;-82
2021/07/10 08:12:33;;;;;;;32.67;6.90;;;22.00;99.90;;;;;;5076461;28;20462;-82
2021/07/10 08:15:01;;;;;;;28.60;7.33;;;22.00;99.90;;;;;;5077122;28;20471;-81
2021/07/10 08:17:29;;;;;;;35.40;7.97;;;22.00;99.90;;;;;;5071707;28;20459;-81
2021/07/10 08:19:57;;;;;;;32.93;6.87;;;21.90;99.90;;;;;;5070285;28;20469;-82
2021/07/10 08:22:23;;;;;;;33.80;5.73;;;21.90;99.90;;;;;;5075119;28;20465;-81
2021/07/10 08:24:50;;;;;;;26.57;6.30;;;22.00;99.90;;;;;;5065945;28;20546;-81
2021/07/10 08:27:18;;;;;;;32.67;7.20;;;22.10;99.90;;;;;;5075666;28;20455;-81
2021/07/10 08:29:45;;;;;;;21.33;5.70;;;22.30;99.90;;;;;;5074380;28;20455;-82
2021/07/10 08:32:13;;;;;;;30.47;6.10;;;22.40;99.90;;;;;;5074648;28;20454;-81
2021/07/10 08:34:40;;;;;;;25.40;5.87;;;22.50;99.90;;;;;;5073514;28;20471;-80
2021/07/10 08:37:08;;;;;;;28.77;7.17;;;22.60;99.90;;;;;;5067616;28;20890;-81
2021/07/10 08:39:35;;;;;;;21.83;5.83;;;22.80;99.90;;;;;;5073640;28;20839;-82
2021/07/10 08:42:02;;;;;;;43.90;9.00;;;22.90;99.90;;;;;;5076240;28;20451;-82
2021/07/10 08:44:33;;;;;;;33.37;6.60;;;23.00;99.90;;;;;;5069232;28;20561;-82
2021/07/10 08:47:00;;;;;;;29.33;6.77;;;23.10;99.90;;;;;;5060277;28;20448;-81
2021/07/10 08:49:30;;;;;;;26.70;6.50;;;23.10;99.90;;;;;;5059336;28;20458;-82
2021/07/10 08:51:57;;;;;;;44.90;13.40;;;23.20;99.90;;;;;;5059923;28;20460;-82
2021/07/10 08:54:24;;;;;;;29.33;6.43;;;23.30;99.90;;;;;;5070759;28;20473;-81
2021/07/10 08:56:51;;;;;;;26.30;5.87;;;23.40;99.90;;;;;;5078800;28;20537;-81
2021/07/10 08:59:18;;;;;;;22.47;5.87;;;23.40;99.90;;;;;;5070191;28;20434;-80
2021/07/10 09:01:45;;;;;;;23.17;6.60;;;23.40;99.90;;;;;;5076331;28;20447;-81
2021/07/10 09:04:12;;;;;;;33.97;7.30;;;23.60;99.90;;;;;;5076399;28;20458;-81
2021/07/10 09:06:41;;;;;;;32.00;6.40;;;23.70;99.90;;;;;;5076996;28;20582;-81
2021/07/10 09:09:10;;;;;;;25.10;6.10;;;24.00;99.90;;;;;;5076459;28;21062;-81
2021/07/10 09:11:37;;;;;;;36.47;7.70;;;24.20;99.90;;;;;;5078170;28;20462;-81
2021/07/10 09:14:03;;;;;;;34.90;7.07;;;24.00;99.90;;;;;;5077816;28;20458;-81
2021/07/10 09:16:32;;;;;;;34.07;5.97;;;23.90;99.90;;;;;;5079660;28;20451;-81
2021/07/10 09:19:00;;;;;;;28.93;5.60;;;23.90;99.90;;;;;;5072073;28;20459;-81
2021/07/10 09:21:43;;;;;;;26.83;6.03;;;24.10;99.90;;;;;;5071924;28;20456;-81
2021/07/10 09:24:13;;;;;;;29.10;5.50;;;24.00;99.90;;;;;;5071069;28;20474;-82
2021/07/10 09:26:45;;;;;;;24.23;5.40;;;24.00;99.90;;;;;;5078289;28;20485;-82
2021/07/10 09:29:14;;;;;;;51.70;22.60;;;24.00;99.90;;;;;;5077363;28;20455;-82
2021/07/10 09:31:43;;;;;;;39.23;6.87;;;23.90;99.90;;;;;;5078117;28;20439;-81
2021/07/10 09:34:14;;;;;;;39.97;8.70;;;23.90;99.90;;;;;;5073999;28;20569;-82
2021/07/10 09:36:53;;;;;;;43.50;8.60;;;24.00;99.90;;;;;;5073280;28;20456;-81
2021/07/10 09:39:21;;;;;;;48.60;20.70;;;24.10;99.90;;;;;;5072233;28;20806;-82
2021/07/10 09:41:48;;;;;;;42.63;11.73;;;24.00;99.90;;;;;;5078715;28;20447;-82
2021/07/10 09:44:16;;;;;;;30.80;5.67;;;24.00;99.90;;;;;;5074157;28;20516;-82
2021/07/10 09:46:44;;;;;;;36.07;7.63;;;24.10;99.90;;;;;;5072053;28;20483;-82
2021/07/10 09:49:19;;;;;;;35.90;5.60;;;24.20;99.90;;;;;;5074947;28;20534;-82
2021/07/10 09:51:46;;;;;;;28.33;5.50;;;24.20;99.90;;;;;;5076607;28;20962;-82
2021/07/10 09:54:14;;;;;;;25.23;5.67;;;24.40;99.90;;;;;;5075668;28;20520;-81
2021/07/10 09:57:01;;;;;;;43.77;6.40;;;24.50;99.90;;;;;;5075445;28;20439;-82
2021/07/10 09:59:27;;;;;;;39.70;6.57;;;24.50;99.90;;;;;;5074954;28;20447;-83
2021/07/10 10:01:57;;;;;;;36.07;6.40;;;24.40;99.90;;;;;;5078277;28;20447;-83
2021/07/10 10:04:29;;;;;;;39.70;7.20;;;24.50;99.90;;;;;;5080826;28;20477;-83
2021/07/10 10:06:59;;;;;;;30.90;6.17;;;24.40;99.90;;;;;;5078848;28;20493;-82
2021/07/10 10:09:28;;;;;;;21.53;5.87;;;24.20;99.90;;;;;;5071948;28;20479;-83
2021/07/10 10:12:00;;;;;;;16.63;5.13;;;24.20;99.90;;;;;;5077818;28;20451;-82
2021/07/10 10:14:28;;;;;;;13.60;5.23;;;24.30;99.90;;;;;;5065299;28;20492;-81
2021/07/10 10:16:56;;;;;;;14.80;5.33;;;24.60;99.90;;;;;;5068825;28;20939;-82
2021/07/10 10:19:25;;;;;;;16.87;6.00;;;24.90;99.90;;;;;;5078469;28;20469;-83
2021/07/10 10:21:55;;;;;;;19.30;5.93;;;25.00;99.90;;;;;;5080267;28;20520;-84
2021/07/10 10:24:27;;;;;;;14.47;4.73;;;24.90;99.90;;;;;;5082063;28;20570;-84
2021/07/10 10:26:57;;;;;;;15.70;5.93;;;24.90;99.90;;;;;;5080380;28;20497;-82
2021/07/10 10:29:29;;;;;;;17.40;6.27;;;24.90;99.90;;;;;;5082764;28;20439;-82
2021/07/10 10:31:58;;;;;;;15.47;5.17;;;24.70;99.90;;;;;;5077914;28;20512;-82
2021/07/10 10:34:26;;;;;;;22.20;6.13;;;24.80;99.90;;;;;;5081108;28;20470;-84
2021/07/10 10:36:55;;;;;;;18.80;5.37;;;24.80;99.90;;;;;;5080689;28;20538;-83
2021/07/10 10:39:24;;;;;;;43.87;8.37;;;24.80;99.90;;;;;;5080429;28;20514;-83
2021/07/10 10:41:52;;;;;;;40.53;7.83;;;24.70;99.90;;;;;;5081507;28;20453;-83
2021/07/10 10:44:21;;;;;;;25.33;5.97;;;24.40;99.90;;;;;;5068170;28;20473;-83
2021/07/10 10:46:52;;;;;;;25.83;7.00;;;24.40;99.90;;;;;;5082636;28;20933;-83
2021/07/10 10:49:41;;;;;;;23.30;5.93;;;24.50;99.90;;;;;;5078050;28;20459;-82
2021/07/10 10:52:23;;;;;;;51.60;8.13;;;24.40;99.90;;;;;;5075195;28;21398;-84
2021/07/10 10:54:52;;;;;;;69.93;40.33;;;24.40;99.90;;;;;;5075694;28;20550;-82
2021/07/10 10:57:29;;;;;;;40.63;6.90;;;24.30;99.90;;;;;;5082242;28;20439;-82
2021/07/10 10:59:59;;;;;;;53.80;11.13;;;24.10;99.90;;;;;;5077517;28;20474;-83
2021/07/10 11:02:58;;;;;;;18.97;5.60;;;24.10;99.90;;;;;;5085273;28;20502;-83
2021/07/10 11:05:41;;;;;;;14.90;5.53;;;24.10;99.90;;;;;;5078140;28;20835;-83
2021/07/10 11:08:30;;;;;;;20.80;6.00;;;24.10;99.90;;;;;;5065388;28;20462;-83
2021/07/10 11:11:28;;;;;;;42.30;6.53;;;24.00;99.90;;;;;;5081049;28;20509;-83
2021/07/10 11:14:20;;;;;;;55.83;13.87;;;24.00;99.90;;;;;;5079301;28;20470;-83
2021/07/10 11:17:09;;;;;;;41.37;6.63;;;23.90;99.90;;;;;;5078725;28;20447;-83
2021/07/10 11:19:55;;;;;;;16.30;6.07;;;23.90;99.90;;;;;;5082131;28;20451;-83
2021/07/10 11:22:57;;;;;;;21.40;4.87;;;24.00;99.90;;;;;;5080452;28;20447;-82
2021/07/10 11:26:02;;;;;;;189.93;176.43;;;24.10;99.90;;;;;;5078396;28;20482;-83
2021/07/10 11:28:48;;;;;;;49.10;9.03;;;24.10;99.90;;;;;;5045629;28;20538;-82
2021/07/10 11:31:20;;;;;;;26.27;6.00;;;24.20;99.90;;;;;;5074940;28;20542;-83
2021/07/10 11:34:19;;;;;;;66.70;40.17;;;24.30;99.90;;;;;;5065966;28;20467;-83
2021/07/10 11:36:53;;;;;;;396.97;374.57;;;24.30;99.90;;;;;;5079560;28;20479;-82
2021/07/10 11:39:39;;;;;;;60.17;19.37;;;24.60;99.90;;;;;;5081018;28;20479;-83
2021/07/10 11:42:54;;;;;;;570.00;531.53;;;24.80;99.90;;;;;;5066139;28;20511;-82
2021/07/10 11:45:49;;;;;;;460.33;432.53;;;25.00;99.90;;;;;;5081767;28;20533;-83
2021/07/10 11:48:21;;;;;;;353.83;333.27;;;25.40;99.90;;;;;;5078608;28;20970;-83
2021/07/10 11:51:09;;;;;;;300.13;277.27;;;25.50;99.90;;;;;;5079432;28;20451;-84
2021/07/10 11:53:36;;;;;;;460.17;434.63;;;25.40;99.90;;;;;;5069441;28;20471;-83
2021/07/10 11:56:04;;;;;;;596.20;562.10;;;25.40;99.90;;;;;;5082274;28;20445;-83
2021/07/10 11:58:31;;;;;;;1487.77;812.03;;;25.50;99.90;;;;;;5080542;28;20589;-83
2021/07/10 12:01:04;;;;;;;1999.90;999.90;;;25.40;99.90;;;;;;5082733;28;20454;-85
2021/07/10 12:03:32;;;;;;;1999.90;999.90;;;25.40;99.90;;;;;;5079578;28;20458;-84
2021/07/10 12:05:59;;;;;;;1999.90;999.90;;;25.40;99.90;;;;;;5081308;28;20483;-83
2021/07/10 12:08:29;;;;;;;1999.90;999.90;;;25.30;99.90;;;;;;5080719;28;20483;-83
2021/07/10 12:10:56;;;;;;;1999.90;999.90;;;25.30;99.90;;;;;;5079652;28;20447;-83
2021/07/10 12:13:27;;;;;;;436.60;411.27;;;25.40;99.90;;;;;;5076305;28;21058;-86
2021/07/10 12:15:55;;;;;;;1999.90;999.90;;;26.30;99.90;;;;;;5072260;28;20442;-85
2021/07/10 12:18:24;;;;;;;1999.90;999.90;;;27.10;99.90;;;;;;5061319;28;20533;-86
2021/07/10 12:20:53;;;;;;;555.73;524.00;;;27.90;99.90;;;;;;5072307;28;20546;-84
2021/07/10 12:23:22;;;;;;;1999.90;999.90;;;28.70;99.90;;;;;;5089812;28;20463;-84
2021/07/10 12:25:53;;;;;;;1999.90;999.90;;;28.90;99.90;;;;;;5075427;28;21036;-81
2021/07/10 12:28:32;;;;;;;1999.90;999.90;;;29.00;99.90;;;;;;5076247;28;20963;-83
2021/07/10 12:31:00;;;;;;;1999.90;999.90;;;29.00;99.90;;;;;;5073269;28;20446;-84
2021/07/10 12:33:39;;;;;;;1999.90;999.90;;;29.40;99.90;;;;;;5075913;28;20470;-85
2021/07/10 12:36:09;;;;;;;1999.90;999.90;;;29.60;99.90;;;;;;5072480;28;21037;-84
2021/07/10 12:38:47;;;;;;;1999.90;999.90;;;29.70;99.90;;;;;;5074599;28;20450;-86